Time;durP1;ratioP1;P1;durP2;ratioP2;P2;SDS_P1;SDS_P2;PMS_P1;PMS_P2;Temp;Humidity;BMP_temperature;BMP_pressure;BME280_temperature;BME280_humidity;BME280_pressure;Samples;Min_cycle;Max_cycle;Signal;HPM_P1;HPM_P2
2022/04/23 00:01:42;;;;;;;33.55;21.77;;;;;;;12.53;100.00;100148.00;5063691;28;20045;-73
2022/04/23 00:04:10;;;;;;;35.90;21.98;;;;;;;12.51;100.00;100144.84;5066114;28;20040;-73
2022/04/23 00:06:37;;;;;;;39.35;23.42;;;;;;;12.49;100.00;100145.28;5072313;28;20048;-71
2022/04/23 00:09:05;;;;;;;23.10;12.18;;;;;;;12.47;100.00;100144.13;5069300;28;20512;-72
2022/04/23 00:11:32;;;;;;;35.60;21.67;;;;;;;12.46;100.00;100150.91;5058475;28;20053;-71
2022/04/23 00:13:59;;;;;;;38.58;22.38;;;;;;;12.43;100.00;100148.97;5070186;28;20148;-71
2022/04/23 00:16:27;;;;;;;32.92;20.48;;;;;;;12.39;100.00;100145.47;5062958;28;20063;-70
2022/04/23 00:18:54;;;;;;;37.95;23.08;;;;;;;12.40;100.00;100155.38;5065371;28;20087;-73
2022/04/23 00:21:21;;;;;;;38.00;23.38;;;;;;;12.36;100.00;100149.09;5073566;28;20126;-71
2022/04/23 00:23:48;;;;;;;39.50;24.23;;;;;;;12.34;100.00;100146.75;5067530;28;20432;-72
2022/04/23 00:26:14;;;;;;;41.35;24.73;;;;;;;12.30;100.00;100146.03;5060340;28;20049;-73
2022/04/23 00:28:41;;;;;;;37.13;24.38;;;;;;;12.29;100.00;100152.00;5072296;28;20401;-73
2022/04/23 00:31:08;;;;;;;42.67;26.67;;;;;;;12.28;100.00;100153.97;5067477;28;20077;-71
2022/04/23 00:33:38;;;;;;;41.78;25.52;;;;;;;12.25;100.00;100154.81;5075702;28;20132;-72
2022/04/23 00:36:05;;;;;;;36.85;22.27;;;;;;;12.24;100.00;100153.25;5067217;28;20067;-72
2022/04/23 00:38:36;;;;;;;38.03;24.95;;;;;;;12.19;100.00;100155.72;5071566;28;20055;-71
2022/04/23 00:41:02;;;;;;;40.70;25.15;;;;;;;12.18;100.00;100154.13;5071863;28;20633;-71
2022/04/23 00:43:33;;;;;;;39.72;25.05;;;;;;;12.19;100.00;100152.94;5068702;28;20072;-73
2022/04/23 00:46:01;;;;;;;37.60;23.63;;;;;;;12.16;100.00;100157.38;5068560;28;20044;-71
2022/04/23 00:48:28;;;;;;;35.90;21.73;;;;;;;12.14;100.00;100151.44;5071144;28;20094;-72
2022/04/23 00:50:57;;;;;;;43.15;25.92;;;;;;;12.13;100.00;100149.09;5066889;28;20058;-72
2022/04/23 00:53:25;;;;;;;41.05;25.85;;;;;;;12.08;100.00;100138.50;5059363;28;20512;-72
2022/04/23 00:55:52;;;;;;;42.13;24.85;;;;;;;12.07;100.00;100145.22;5068401;28;20059;-72
2022/04/23 00:58:20;;;;;;;44.45;26.60;;;;;;;12.07;100.00;100151.56;5067186;28;20055;-71
2022/04/23 01:00:47;;;;;;;39.88;21.60;;;;;;;12.04;100.00;100148.81;5071447;28;20044;-71
2022/04/23 01:03:14;;;;;;;46.80;27.60;;;;;;;12.04;100.00;100149.63;5064518;28;20132;-72
2022/04/23 01:05:46;;;;;;;43.72;28.05;;;;;;;11.98;100.00;100147.75;5067467;28;20059;-71
2022/04/23 01:08:15;;;;;;;41.47;25.25;;;;;;;11.99;100.00;100146.53;5062367;28;20084;-71
2022/04/23 01:10:43;;;;;;;39.45;24.13;;;;;;;12.01;100.00;100144.13;5073657;28;20070;-71
2022/04/23 01:13:14;;;;;;;43.35;27.95;;;;;;;11.97;100.00;100149.75;5066702;28;20132;-71
2022/04/23 01:15:56;;;;;;;44.85;27.42;;;;;;;11.99;100.00;100155.66;5068918;28;20062;-71
2022/04/23 01:18:22;;;;;;;41.63;23.45;;;;;;;11.94;100.00;100152.56;5058577;28;20136;-72
2022/04/23 01:20:49;;;;;;;43.45;26.95;;;;;;;11.96;100.00;100153.72;5069339;28;20131;-72
2022/04/23 01:23:16;;;;;;;44.85;26.08;;;;;;;11.94;100.00;100155.31;5067516;28;20058;-71
2022/04/23 01:25:42;;;;;;;45.83;29.25;;;;;;;11.94;100.00;100158.09;5067393;28;20750;-72
2022/04/23 01:28:10;;;;;;;45.38;28.10;;;;;;;11.92;100.00;100157.75;5065426;28;20150;-72
2022/04/23 01:30:36;;;;;;;43.65;27.00;;;;;;;11.88;100.00;100154.25;5069105;28;20143;-70
2022/04/23 01:33:03;;;;;;;47.20;25.63;;;;;;;11.91;100.00;100159.72;5066350;28;20064;-71
2022/04/23 01:35:31;;;;;;;44.70;24.85;;;;;;;11.89;100.00;100151.06;5074620;28;20411;-70
2022/04/23 01:37:57;;;;;;;44.33;27.45;;;;;;;11.87;100.00;100159.00;5056928;28;20136;-71
2022/04/23 01:40:24;;;;;;;43.90;26.05;;;;;;;11.85;100.00;100152.31;5069403;28;20139;-71
2022/04/23 01:42:50;;;;;;;47.10;26.77;;;;;;;11.84;100.00;100150.72;5056911;28;20504;-71
2022/04/23 01:45:17;;;;;;;44.80;26.60;;;;;;;11.83;100.00;100147.19;5062199;28;20576;-71
2022/04/23 01:47:43;;;;;;;41.85;23.55;;;;;;;11.80;100.00;100148.03;5068777;28;20040;-71
2022/04/23 01:50:10;;;;;;;40.17;24.15;;;;;;;11.78;100.00;100144.88;5061125;28;20798;-72
2022/04/23 01:52:37;;;;;;;42.53;24.73;;;;;;;11.77;100.00;100146.09;5068494;28;20048;-71
2022/04/23 01:55:04;;;;;;;41.63;25.42;;;;;;;11.80;100.00;100156.34;5065511;28;20144;-71
2022/04/23 01:57:30;;;;;;;40.28;25.42;;;;;;;11.80;100.00;100144.47;5070103;28;20066;-70
2022/04/23 01:59:56;;;;;;;40.53;25.83;;;;;;;11.80;100.00;100144.47;5063738;28;20058;-71
2022/04/23 02:02:23;;;;;;;40.53;26.02;;;;;;;11.79;100.00;100151.22;5071265;28;20407;-72
2022/04/23 02:04:50;;;;;;;41.70;25.17;;;;;;;11.77;100.00;100146.09;5066628;28;20047;-71
2022/04/23 02:07:16;;;;;;;42.67;25.67;;;;;;;11.76;100.00;100141.75;5064362;28;20048;-70
2022/04/23 02:09:43;;;;;;;40.22;22.13;;;;;;;11.77;100.00;100145.28;5063955;28;20131;-70
2022/04/23 02:12:09;;;;;;;38.75;22.83;;;;;;;11.75;100.00;100147.72;5072265;28;20045;-70
2022/04/23 02:14:36;;;;;;;42.65;26.25;;;;;;;11.71;100.00;100141.44;5065518;28;20048;-71
2022/04/23 02:17:03;;;;;;;41.78;25.65;;;;;;;11.71;100.00;100138.66;5073154;28;20106;-71
2022/04/23 02:19:29;;;;;;;41.28;24.10;;;;;;;11.70;100.00;100148.97;5069113;28;20146;-72
2022/04/23 02:21:56;;;;;;;45.65;26.65;;;;;;;11.71;100.00;100138.66;5068302;28;20167;-71
2022/04/23 02:24:22;;;;;;;39.58;24.52;;;;;;;11.71;100.00;100141.44;5070890;28;20127;-71
2022/04/23 02:26:49;;;;;;;45.22;25.48;;;;;;;11.70;100.00;100137.88;5065023;28;20506;-70
2022/04/23 02:29:15;;;;;;;44.17;25.85;;;;;;;11.70;100.00;100148.16;5073296;28;20075;-70
2022/04/23 02:31:42;;;;;;;45.67;26.30;;;;;;;11.72;100.00;100145.78;5071189;28;20049;-70
2022/04/23 02:34:08;;;;;;;42.95;27.02;;;;;;;11.71;100.00;100141.44;5071669;28;20044;-70
2022/04/23 02:36:35;;;;;;;40.80;24.10;;;;;;;11.72;100.00;100143.00;5077019;28;20044;-70
2022/04/23 02:39:02;;;;;;;40.88;24.67;;;;;;;11.65;100.00;100132.78;5072461;28;20139;-71
2022/04/23 02:41:29;;;;;;;44.05;25.20;;;;;;;11.70;100.00;100148.97;5065656;28;20148;-70
2022/04/23 02:43:57;;;;;;;44.28;28.85;;;;;;;11.69;100.00;100149.38;5072746;28;20091;-71
2022/04/23 02:46:24;;;;;;;44.00;25.42;;;;;;;11.69;100.00;100154.91;5060839;28;20041;-72
2022/04/23 02:48:50;;;;;;;43.92;25.77;;;;;;;11.70;100.00;100148.97;5072733;28;20055;-72
2022/04/23 02:51:17;;;;;;;47.65;25.83;;;;;;;11.70;100.00;100137.09;5061430;28;20088;-71
2022/04/23 02:53:43;;;;;;;40.97;26.20;;;;;;;11.70;100.00;100145.41;5065578;28;20055;-71
2022/04/23 02:56:16;;;;;;;42.55;24.85;;;;;;;11.68;100.00;100142.28;5063632;28;20066;-71
2022/04/23 02:58:44;;;;;;;42.45;25.42;;;;;;;11.68;100.00;100147.81;5064621;28;20079;-71
2022/04/23 03:01:10;;;;;;;42.13;25.55;;;;;;;11.70;100.00;100162.81;5066598;28;20048;-71
2022/04/23 03:03:38;;;;;;;38.75;24.25;;;;;;;11.69;100.00;100149.38;5070654;28;20051;-71
2022/04/23 03:06:07;;;;;;;43.53;26.77;;;;;;;11.65;100.00;100149.41;5069007;28;20036;-71
2022/04/23 03:08:40;;;;;;;43.53;24.88;;;;;;;11.65;100.00;100152.19;5070161;28;20076;-71
2022/04/23 03:11:07;;;;;;;42.88;26.02;;;;;;;11.67;100.00;100138.72;5067846;28;20054;-72
2022/04/23 03:13:35;;;;;;;42.58;23.67;;;;;;;11.64;100.00;100158.94;5064867;28;20081;-71
2022/04/23 03:16:03;;;;;;;41.92;22.90;;;;;;;11.65;100.00;100159.72;5069851;28;20421;-70
2022/04/23 03:18:29;;;;;;;42.83;23.58;;;;;;;11.59;100.00;100148.31;5075855;28;20573;-71
2022/04/23 03:20:58;;;;;;;43.03;26.17;;;;;;;11.65;100.00;100157.72;5080475;28;20117;-71
2022/04/23 03:23:25;;;;;;;46.40;28.10;;;;;;;11.67;100.00;100152.56;5076578;28;20162;-70
2022/04/23 03:25:51;;;;;;;46.40;28.17;;;;;;;11.67;100.00;100146.22;5069976;28;20156;-72
2022/04/23 03:28:18;;;;;;;42.60;23.33;;;;;;;11.67;100.00;100154.53;5075152;28;20044;-71
2022/04/23 03:30:45;;;;;;;37.67;20.98;;;;;;;11.67;100.00;100158.09;5069319;28;20623;-72
2022/04/23 03:33:12;;;;;;;41.60;25.45;;;;;;;11.69;100.00;100150.16;5073754;28;20069;-71
2022/04/23 03:35:39;;;;;;;44.42;26.00;;;;;;;11.66;100.00;100145.47;5068873;28;20051;-70
2022/04/23 03:38:05;;;;;;;41.40;24.88;;;;;;;11.66;100.00;100148.22;5082680;28;20147;-70
2022/04/23 03:40:32;;;;;;;41.35;24.88;;;;;;;11.70;100.00;100150.94;5067545;28;20056;-71
2022/04/23 03:42:58;;;;;;;45.65;26.83;;;;;;;11.68;100.00;100148.59;5071525;28;20054;-72
2022/04/23 03:45:25;;;;;;;42.78;26.15;;;;;;;11.68;100.00;100158.91;5073335;28;20048;-70
2022/04/23 03:47:51;;;;;;;40.38;24.77;;;;;;;11.67;100.00;100155.34;5075573;28;20087;-70
2022/04/23 03:50:20;;;;;;;42.60;26.08;;;;;;;11.66;100.00;100148.22;5077279;28;20052;-70
2022/04/23 03:52:49;;;;;;;42.03;24.95;;;;;;;11.65;100.00;100156.97;5071611;28;20118;-70
2022/04/23 03:55:16;;;;;;;39.10;24.00;;;;;;;11.65;100.00;100143.09;5071517;28;20105;-71
2022/04/23 03:57:50;;;;;;;41.25;23.90;;;;;;;11.65;100.00;100154.19;5074307;28;20766;-71
2022/04/23 04:00:20;;;;;;;46.05;27.13;;;;;;;11.62;100.00;100143.94;5064715;28;20054;-70
2022/04/23 04:02:47;;;;;;;40.90;23.90;;;;;;;11.64;100.00;100149.88;5072939;28;20051;-71
2022/04/23 04:05:14;;;;;;;40.92;26.20;;;;;;;11.66;100.00;100137.16;5072055;28;20055;-70
2022/04/23 04:07:45;;;;;;;41.80;25.42;;;;;;;11.63;100.00;100137.19;5074725;28;20109;-71
2022/04/23 04:10:14;;;;;;;37.90;23.55;;;;;;;11.64;100.00;100134.00;5070687;28;20048;-71
2022/04/23 04:12:41;;;;;;;35.55;20.25;;;;;;;11.64;100.00;100139.53;5070044;28;20460;-72
2022/04/23 04:15:12;;;;;;;43.35;26.38;;;;;;;11.67;100.00;100135.16;5076668;28;20055;-70
2022/04/23 04:17:40;;;;;;;41.05;25.00;;;;;;;11.66;100.00;100142.69;5070377;28;20203;-71
2022/04/23 04:20:10;;;;;;;43.53;26.58;;;;;;;11.71;100.00;100142.22;5075866;28;20052;-71
2022/04/23 04:22:38;;;;;;;41.58;26.85;;;;;;;11.76;100.00;100140.97;5077766;28;20044;-71
2022/04/23 04:25:06;;;;;;;44.40;26.73;;;;;;;11.77;100.00;100142.50;5069548;28;20040;-70
2022/04/23 04:27:33;;;;;;;45.78;28.95;;;;;;;11.79;100.00;100140.91;5067755;28;20398;-73
2022/04/23 04:30:04;;;;;;;39.58;22.13;;;;;;;11.83;100.00;100133.31;5072937;28;20513;-70
2022/04/23 04:32:31;;;;;;;40.30;24.90;;;;;;;11.90;100.00;100132.41;5072293;28;20378;-70
2022/04/23 04:34:58;;;;;;;40.08;25.20;;;;;;;11.94;100.00;100138.69;5075640;28;20070;-72
2022/04/23 04:37:24;;;;;;;44.10;27.30;;;;;;;12.00;100.00;100134.25;5075108;28;20051;-70
2022/04/23 04:39:51;;;;;;;44.17;27.65;;;;;;;12.03;100.00;100130.63;5076200;28;20064;-70
2022/04/23 04:42:17;;;;;;;42.83;25.98;;;;;;;12.06;100.00;100129.78;5074934;28;20108;-71
2022/04/23 04:44:44;;;;;;;42.88;25.13;;;;;;;12.12;100.00;100125.34;5072841;28;20521;-71
2022/04/23 04:47:11;;;;;;;42.28;26.90;;;;;;;12.10;100.00;100120.22;5075858;28;20045;-69
2022/04/23 04:49:39;;;;;;;43.28;23.77;;;;;;;12.15;100.00;100119.72;5076593;28;20846;-72
2022/04/23 04:52:06;;;;;;;38.97;23.27;;;;;;;12.18;100.00;100131.94;5072174;28;20048;-71
2022/04/23 04:54:33;;;;;;;43.90;27.13;;;;;;;12.23;100.00;100125.94;5060994;28;20060;-74
2022/04/23 04:57:02;;;;;;;43.40;26.38;;;;;;;12.26;100.00;100125.88;5075525;28;20175;-71
2022/04/23 04:59:33;;;;;;;41.13;25.10;;;;;;;12.28;100.00;100128.22;5068087;28;20501;-71
2022/04/23 05:02:00;;;;;;;46.90;26.60;;;;;;;12.30;100.00;100145.22;5071651;28;20067;-73
2022/04/23 05:04:28;;;;;;;42.55;27.05;;;;;;;12.35;100.00;100144.72;5067424;28;20075;-71
2022/04/23 05:06:54;;;;;;;46.22;28.23;;;;;;;12.38;100.00;100136.38;5074487;28;20156;-72
2022/04/23 05:09:21;;;;;;;45.97;26.27;;;;;;;12.41;100.00;100138.28;5071563;28;20048;-73
2022/04/23 05:11:48;;;;;;;46.05;29.42;;;;;;;12.48;100.00;100143.72;5072762;28;20060;-71
2022/04/23 05:14:16;;;;;;;46.83;28.10;;;;;;;12.52;100.00;100143.66;5078377;28;20064;-71
2022/04/23 05:16:43;;;;;;;48.33;28.20;;;;;;;12.56;100.00;100147.91;5070921;28;20048;-71
2022/04/23 05:19:10;;;;;;;45.30;26.73;;;;;;;12.63;100.00;100142.25;5073734;28;20071;-73
2022/04/23 05:21:37;;;;;;;47.40;28.60;;;;;;;12.67;100.00;100142.97;5065479;28;20060;-72
2022/04/23 05:24:06;;;;;;;41.38;25.80;;;;;;;12.65;100.00;100130.72;5068679;28;20045;-72
2022/04/23 05:26:34;;;;;;;47.30;29.98;;;;;;;12.75;100.00;100129.72;5069076;28;20044;-74
2022/04/23 05:29:01;;;;;;;46.72;28.40;;;;;;;12.80;100.00;100143.91;5067790;28;20118;-74
2022/04/23 05:31:28;;;;;;;47.88;28.65;;;;;;;12.87;100.00;100140.22;5069863;28;20123;-73
2022/04/23 05:33:54;;;;;;;46.47;28.88;;;;;;;12.89;100.00;100137.78;5069758;28;20072;-73
2022/04/23 05:36:21;;;;;;;48.58;29.80;;;;;;;12.93;100.00;100127.41;5057897;28;20142;-74
2022/04/23 05:38:48;;;;;;;47.08;28.38;;;;;;;12.95;100.00;100133.31;5071125;28;20046;-73
2022/04/23 05:41:14;;;;;;;42.30;25.35;;;;;;;13.03;100.00;100126.44;5062146;28;20139;-73
2022/04/23 05:43:41;;;;;;;46.20;28.55;;;;;;;13.11;100.00;100138.16;5069888;28;20048;-74
2022/04/23 05:46:08;;;;;;;53.10;31.92;;;;;;;13.11;100.00;100140.94;5076595;28;20036;-75
2022/04/23 05:48:39;;;;;;;51.15;31.92;;;;;;;13.16;100.00;100130.13;5078946;28;20105;-75
2022/04/23 05:51:06;;;;;;;49.10;30.20;;;;;;;13.20;100.00;100138.38;5071633;28;20128;-74
2022/04/23 05:53:32;;;;;;;45.95;28.25;;;;;;;13.21;100.00;100135.19;5065963;28;20051;-74
2022/04/23 05:55:59;;;;;;;49.10;32.42;;;;;;;13.26;100.00;100137.44;5054688;28;20143;-74
2022/04/23 05:58:25;;;;;;;50.53;32.65;;;;;;;13.33;100.00;100139.31;5062978;28;20131;-74
2022/04/23 06:00:52;;;;;;;44.03;23.10;;;;;;;13.35;100.00;100143.22;5074095;28;20060;-75
2022/04/23 06:03:20;;;;;;;51.72;32.85;;;;;;;13.37;100.00;100138.03;5068655;28;20044;-75
2022/04/23 06:05:50;;;;;;;42.90;26.27;;;;;;;13.42;100.00;100131.16;5068139;28;20056;-73
2022/04/23 06:08:17;;;;;;;48.80;30.67;;;;;;;13.45;99.38;100136.66;5067751;28;20508;-74
2022/04/23 06:10:43;;;;;;;41.85;26.13;;;;;;;13.48;99.23;100138.56;5068406;28;20055;-72
2022/04/23 06:13:11;;;;;;;47.70;31.10;;;;;;;13.54;98.62;100136.84;5072509;28;20146;-74
2022/04/23 06:15:37;;;;;;;48.10;31.95;;;;;;;13.56;98.35;100119.75;5066202;28;20160;-75
2022/04/23 06:18:04;;;;;;;52.85;32.72;;;;;;;13.58;98.12;100134.78;5064948;28;20036;-75
2022/04/23 06:20:31;;;;;;;46.25;28.70;;;;;;;13.62;97.81;100135.47;5069093;28;20413;-74
2022/04/23 06:22:57;;;;;;;46.63;28.30;;;;;;;13.63;97.07;100136.25;5074739;28;20059;-75
2022/04/23 06:25:23;;;;;;;46.70;28.67;;;;;;;13.64;96.89;100130.28;5065797;28;20045;-76
2022/04/23 06:27:50;;;;;;;53.70;28.77;;;;;;;13.63;96.08;100137.03;5070360;28;20408;-72
2022/04/23 06:30:17;;;;;;;49.28;30.83;;;;;;;13.69;95.61;100129.75;5072341;28;20414;-74
2022/04/23 06:32:44;;;;;;;50.45;31.40;;;;;;;13.74;95.32;100143.13;5077124;28;20105;-74
2022/04/23 06:35:11;;;;;;;30.92;17.98;;;;;;;13.75;94.92;100132.78;5072143;28;20134;-73
2022/04/23 06:37:40;;;;;;;50.28;33.10;;;;;;;13.80;95.15;100135.84;5070229;28;20918;-71
2022/04/23 06:40:11;;;;;;;49.28;27.25;;;;;;;13.90;94.65;100131.25;5065465;28;20399;-73
2022/04/23 06:42:38;;;;;;;48.95;31.08;;;;;;;13.96;93.73;100132.28;5075660;28;20078;-73
2022/04/23 06:45:06;;;;;;;45.45;26.45;;;;;;;13.96;93.12;100123.94;5069839;28;20102;-73
2022/04/23 06:47:32;;;;;;;53.75;32.40;;;;;;;14.05;92.91;100133.25;5063189;28;20780;-73
2022/04/23 06:49:59;;;;;;;35.85;20.77;;;;;;;14.08;91.73;100126.03;5067759;28;20058;-71
2022/04/23 06:52:27;;;;;;;46.58;31.02;;;;;;;14.06;91.25;100123.69;5064876;28;20040;-73
2022/04/23 06:54:54;;;;;;;49.67;34.92;;;;;;;14.13;90.71;100131.88;5064003;28;20057;-74
2022/04/23 06:57:25;;;;;;;48.45;31.25;;;;;;;14.23;91.30;100125.28;5070335;28;20051;-72
2022/04/23 06:59:53;;;;;;;40.85;23.65;;;;;;;14.20;90.23;100137.25;5072126;28;20055;-73
2022/04/23 07:02:20;;;;;;;41.90;27.45;;;;;;;14.25;89.38;100127.63;5069320;28;20553;-71
2022/04/23 07:04:47;;;;;;;40.85;23.60;;;;;;;14.33;89.17;100123.44;5068866;28;20064;-73
2022/04/23 07:07:14;;;;;;;48.83;28.90;;;;;;;14.39;88.47;100127.25;5075714;28;20551;-74
2022/04/23 07:09:40;;;;;;;46.92;25.83;;;;;;;14.43;88.56;100128.75;5070085;28;20063;-73
2022/04/23 07:12:08;;;;;;;52.50;35.90;;;;;;;14.53;88.58;100138.03;5073744;28;20412;-72
2022/04/23 07:14:34;;;;;;;55.30;35.15;;;;;;;14.55;87.57;100135.59;5078356;28;20097;-72
2022/04/23 07:17:06;;;;;;;49.40;31.95;;;;;;;14.54;86.84;100140.38;5072238;28;20044;-72
2022/04/23 07:19:37;;;;;;;50.28;31.95;;;;;;;14.66;86.46;100136.09;5076199;28;20124;-69
2022/04/23 07:22:05;;;;;;;50.42;34.83;;;;;;;14.72;86.35;100123.97;5071647;28;20072;-70
2022/04/23 07:24:31;;;;;;;26.77;15.40;;;;;;;14.81;85.99;100126.13;5067954;28;20175;-70
2022/04/23 07:26:59;;;;;;;31.33;16.88;;;;;;;14.86;85.98;100109.66;5073016;28;20051;-70
2022/04/23 07:29:25;;;;;;;30.58;16.90;;;;;;;14.94;84.20;100127.75;5067485;28;20048;-72
2022/04/23 07:31:52;;;;;;;35.95;20.45;;;;;;;14.96;83.61;100130.09;5078300;28;20193;-74
2022/04/23 07:39:50;;;;;;;46.33;23.15;;;;;;;15.12;82.50;100125.22;5067324;28;19927;-72
2022/04/23 07:42:16;;;;;;;44.53;29.52;;;;;;;15.15;81.73;100129.91;5070843;28;20110;-73
2022/04/23 07:44:43;;;;;;;23.38;11.85;;;;;;;15.16;80.67;100125.91;5077028;28;20470;-75
2022/04/23 07:47:16;;;;;;;34.58;17.52;;;;;;;15.16;79.85;100134.25;5073773;28;20059;-73
2022/04/23 07:49:43;;;;;;;48.42;25.55;;;;;;;15.25;80.96;100134.41;5062854;28;20048;-72
2022/04/23 07:52:09;;;;;;;44.60;26.60;;;;;;;15.35;80.91;100127.72;5077641;28;20152;-73
2022/04/23 07:54:39;;;;;;;43.60;25.00;;;;;;;15.24;79.66;100137.63;5065834;28;20131;-74
2022/04/23 07:57:08;;;;;;;34.00;21.02;;;;;;;15.25;80.20;100120.47;5070077;28;20049;-73
2022/04/23 07:59:39;;;;;;;45.78;30.65;;;;;;;15.43;79.39;100137.47;5066081;28;20045;-71
2022/04/23 08:02:06;;;;;;;52.83;30.83;;;;;;;15.50;78.73;100128.13;5075641;28;20047;-71
2022/04/23 08:04:33;;;;;;;45.70;27.85;;;;;;;15.57;78.53;100120.31;5061639;28;20155;-70
2022/04/23 08:06:59;;;;;;;50.88;31.35;;;;;;;15.62;77.76;100137.72;5063459;28;20468;-71
2022/04/23 08:09:26;;;;;;;38.92;20.73;;;;;;;15.69;76.87;100126.34;5062806;28;20782;-73
2022/04/23 08:11:53;;;;;;;47.90;29.33;;;;;;;15.73;76.28;100129.81;5067560;28;20083;-73
2022/04/23 08:14:19;;;;;;;27.65;16.17;;;;;;;15.79;75.69;100125.25;5070742;28;20171;-72
2022/04/23 08:16:48;;;;;;;51.55;30.00;;;;;;;15.85;74.63;100132.59;5076537;28;20048;-72
2022/04/23 08:19:17;;;;;;;45.65;27.55;;;;;;;15.86;74.46;100127.78;5074134;28;20139;-73
2022/04/23 08:21:44;;;;;;;38.50;21.60;;;;;;;15.93;74.06;100124.78;5075341;28;20044;-75
2022/04/23 08:24:10;;;;;;;41.83;22.48;;;;;;;15.94;72.86;100132.69;5070270;28;20086;-72
2022/04/23 08:26:37;;;;;;;45.75;27.10;;;;;;;16.08;74.09;100120.28;5067529;28;20132;-73
2022/04/23 08:31:48;;;;;;;30.80;18.33;;;;;;;16.17;72.84;100123.19;5076915;28;20154;-75
2022/04/23 08:34:15;;;;;;;47.42;28.42;;;;;;;16.29;72.97;100134.31;5074911;28;20310;-74
2022/04/23 08:36:42;;;;;;;52.88;32.67;;;;;;;16.40;73.63;100128.41;5081295;28;20052;-73
2022/04/23 08:39:08;;;;;;;48.08;27.42;;;;;;;16.52;72.58;100119.22;5071684;28;21384;-73
2022/04/23 08:41:35;;;;;;;37.22;19.60;;;;;;;16.56;71.35;100128.25;5068128;28;20052;-74
2022/04/23 08:44:07;;;;;;;40.28;20.80;;;;;;;16.65;70.19;100145.09;5072210;28;20049;-73
2022/04/23 08:46:39;;;;;;;50.35;31.30;;;;;;;16.68;69.80;100133.03;5069947;28;20047;-75
2022/04/23 08:49:13;;;;;;;46.30;27.10;;;;;;;16.74;69.24;100134.00;5069165;28;20214;-73
2022/04/23 08:51:52;;;;;;;40.55;24.23;;;;;;;16.79;67.83;100133.41;5063669;28;20048;-73
2022/04/23 08:54:19;;;;;;;43.10;25.10;;;;;;;16.85;68.17;100134.41;5060797;28;20155;-72
2022/04/23 08:56:46;;;;;;;34.20;19.52;;;;;;;16.86;67.67;100128.38;5065558;28;20086;-74
2022/04/23 08:59:15;;;;;;;53.60;32.92;;;;;;;16.90;68.46;100131.81;5067763;28;20144;-75
2022/04/23 09:01:48;;;;;;;51.17;29.52;;;;;;;17.04;68.95;100130.53;5070582;28;20048;-73
2022/04/23 09:04:15;;;;;;;35.35;20.15;;;;;;;17.07;67.07;100127.59;5066053;28;20467;-72
2022/04/23 09:06:46;;;;;;;49.05;30.70;;;;;;;17.20;67.29;100124.72;5067526;28;20488;-70
2022/04/23 09:09:19;;;;;;;50.50;31.58;;;;;;;17.36;67.61;100121.72;5074225;28;20151;-74
2022/04/23 09:11:58;;;;;;;48.83;27.13;;;;;;;17.42;66.40;100125.50;5067378;28;20044;-74
2022/04/23 09:14:31;;;;;;;46.25;30.20;;;;;;;17.52;65.73;100116.69;5069432;28;20053;-74
2022/04/23 09:25:35;;;;;;;49.90;30.95;;;;;;;17.99;63.05;100130.44;5073391;28;20632;-72
2022/04/23 09:28:14;;;;;;;47.85;31.30;;;;;;;18.08;60.87;100126.91;5064944;28;20507;-76
2022/04/23 09:30:42;;;;;;;39.78;22.05;;;;;;;18.20;60.73;100123.97;5067984;28;20071;-73
2022/04/23 09:33:09;;;;;;;43.60;27.85;;;;;;;18.14;60.28;100120.22;5069441;28;20040;-74
2022/04/23 09:35:50;;;;;;;40.22;24.77;;;;;;;18.21;58.92;100122.72;5070346;28;20528;-73
2022/04/23 09:38:18;;;;;;;47.10;28.92;;;;;;;18.31;59.42;100118.69;5062616;28;20045;-73
2022/04/23 09:40:59;;;;;;;32.45;17.20;;;;;;;18.25;57.98;100114.94;5074614;28;20544;-72
2022/04/23 09:43:30;;;;;;;46.83;29.38;;;;;;;18.37;59.24;100110.47;5064709;28;20498;-72
2022/04/23 09:46:04;;;;;;;28.60;15.02;;;;;;;18.38;57.80;100103.63;5070180;28;20054;-74
2022/04/23 09:48:38;;;;;;;27.50;14.88;;;;;;;18.50;57.03;100111.91;5067366;28;20052;-76
2022/04/23 09:51:26;;;;;;;44.40;25.20;;;;;;;18.51;57.82;100098.66;5066643;28;20052;-72
2022/04/23 09:53:54;;;;;;;41.88;22.25;;;;;;;18.61;57.15;100103.03;5061287;28;20126;-74
2022/04/23 09:56:25;;;;;;;44.95;27.33;;;;;;;18.74;57.35;100103.66;5064494;28;20098;-74
2022/04/23 09:58:53;;;;;;;42.50;28.58;;;;;;;18.85;57.25;100087.94;5067299;28;20117;-74
2022/04/23 10:01:21;;;;;;;36.53;23.50;;;;;;;18.93;56.12;100094.00;5072912;28;20626;-74
2022/04/23 10:03:52;;;;;;;31.80;15.93;;;;;;;19.00;55.12;100102.09;5053491;28;20740;-73
2022/04/23 10:06:21;;;;;;;24.55;11.57;;;;;;;19.04;54.93;100097.09;5058764;28;20051;-73
2022/04/23 10:08:51;;;;;;;43.88;26.25;;;;;;;19.17;54.34;100095.66;5062103;28;20064;-76
2022/04/23 10:11:29;;;;;;;43.95;28.38;;;;;;;19.30;54.29;100101.91;5069305;28;20052;-74
2022/04/23 10:14:01;;;;;;;42.53;24.77;;;;;;;19.45;54.17;100111.22;5056856;28;20110;-70
2022/04/23 10:16:29;;;;;;;39.22;25.83;;;;;;;19.59;53.69;100104.94;5057493;28;20079;-74
2022/04/23 10:18:57;;;;;;;41.22;25.90;;;;;;;19.58;51.68;100106.19;5063643;28;20041;-72
2022/04/23 10:21:58;;;;;;;41.00;24.13;;;;;;;19.74;52.02;100102.22;5061826;28;20374;-72
2022/04/23 10:24:33;;;;;;;34.05;19.10;;;;;;;19.88;51.21;100099.50;5071099;28;20045;-74
2022/04/23 10:27:09;;;;;;;;;;;;;;;19.96;50.67;100100.72;5069340;28;20052;-71
2022/04/23 10:29:36;;;;;;;40.75;24.23;;;;;;;20.03;51.27;100099.59;5062530;28;19960;-72
2022/04/23 10:32:13;;;;;;;32.13;19.38;;;;;;;20.20;50.36;100112.00;5059971;28;20078;-72
2022/04/23 10:34:41;;;;;;;44.60;28.90;;;;;;;20.20;49.43;100104.38;5068598;28;20048;-71
2022/04/23 10:37:29;;;;;;;40.25;27.02;;;;;;;20.39;49.31;100108.59;5061606;28;20131;-71
2022/04/23 10:39:56;;;;;;;40.03;26.10;;;;;;;20.54;49.18;100077.75;5065729;28;20044;-71
2022/04/23 10:42:24;;;;;;;39.35;23.20;;;;;;;20.56;48.38;100096.94;5054282;28;20099;-72
2022/04/23 10:44:55;;;;;;;37.47;25.48;;;;;;;20.66;48.62;100101.22;5058264;28;20123;-73
2022/04/23 10:47:33;;;;;;;40.95;27.25;;;;;;;20.66;47.65;100102.03;5065643;28;20114;-73
2022/04/23 10:50:12;;;;;;;31.15;17.23;;;;;;;20.66;47.43;100084.38;5069948;28;20155;-72
2022/04/23 10:52:39;;;;;;;43.60;28.52;;;;;;;20.56;47.56;100094.91;5067597;28;20044;-75
2022/04/23 10:55:08;;;;;;;39.50;21.42;;;;;;;20.52;47.35;100090.72;5062674;28;20052;-71
2022/04/23 10:57:34;;;;;;;39.15;26.73;;;;;;;20.57;47.90;100101.28;5066571;28;20135;-73
2022/04/23 11:00:12;;;;;;;38.95;25.67;;;;;;;20.43;47.59;100095.13;5072904;28;20143;-73
2022/04/23 11:02:41;;;;;;;38.88;24.35;;;;;;;20.64;47.46;100101.72;5069267;28;20089;-72
2022/04/23 11:13:52;;;;;;;39.38;22.73;;;;;;;21.50;44.90;100091.81;5063768;28;20048;-75
2022/04/23 11:16:21;;;;;;;36.10;21.85;;;;;;;21.63;44.17;100066.22;5067005;28;20051;-74
2022/04/23 11:18:56;;;;;;;35.00;21.05;;;;;;;21.79;43.13;100085.41;5066378;28;20053;-73
2022/04/23 11:21:28;;;;;;;32.58;22.05;;;;;;;21.93;44.11;100085.38;5072000;28;20074;-73
2022/04/23 11:23:57;;;;;;;38.28;25.10;;;;;;;21.94;43.57;100083.34;5071269;28;20053;-72
2022/04/23 11:26:39;;;;;;;34.10;23.55;;;;;;;21.98;42.65;100075.47;5066828;28;20083;-73
2022/04/23 11:29:06;;;;;;;38.90;23.77;;;;;;;22.01;42.54;100075.25;5061676;28;20060;-73
2022/04/23 11:31:32;;;;;;;34.58;18.02;;;;;;;22.20;43.71;100053.22;5071516;28;20052;-72
2022/04/23 11:34:00;;;;;;;38.05;25.45;;;;;;;22.31;41.94;100064.66;5063532;28;20634;-73
2022/04/23 11:36:29;;;;;;;35.85;23.38;;;;;;;22.51;42.69;100073.91;5068209;28;20044;-73